Lucan, Minnesota
Current Conditions -  °F | °C
As of 10:13 PM on Tuesday 21 Oct 2014 (Local Time) from KTKC Reporting Station
Clear Clear  
Wind Chill: 55°   Ceiling: Unl
Heat Index: 55°   Visibility: 10mi
Dew Point: 42°   Wind: 16mph
Humidity: 61%   Direction: 170°S
Pressure: 30.05"   Gusts: NA
Location:  44.41°N, 95.41°W
Report Text: KTKC 220313Z AUTO 17014KT 10SM CLR 13/06 A3005 RMK AO2 T01300057
Loading
Personal Weather Stations






























Interactive Weather Map
Tropical Storm Tracking
New forecast layout! Learn more

10-Day Weather Forecast

Advertisements
Track Severe Weather on mobile